createdAt,value
2023-05-22T00:00:17.811Z,11.48
2023-05-22T00:03:08.526Z,13.98
2023-05-22T00:05:59.020Z,12.15
2023-05-22T00:08:47.285Z,11.52
2023-05-22T00:11:36.614Z,12.07
2023-05-22T00:14:24.527Z,12.23
2023-05-22T00:17:15.164Z,11.35
2023-05-22T00:20:07.150Z,12.75
2023-05-22T00:22:57.202Z,12.90
2023-05-22T00:25:44.794Z,12.80
2023-05-22T00:28:32.654Z,12.93
2023-05-22T00:31:20.319Z,13.23
2023-05-22T00:34:08.444Z,13.50
2023-05-22T00:36:59.611Z,14.32
2023-05-22T00:39:47.917Z,14.60
2023-05-22T00:42:35.746Z,13.27
2023-05-22T00:45:23.496Z,15.20
2023-05-22T00:48:12.392Z,14.20
2023-05-22T00:51:01.959Z,14.43
2023-05-22T00:53:53.329Z,15.85
2023-05-22T00:56:43.146Z,16.15
2023-05-22T00:59:32.290Z,17.50
2023-05-22T01:02:21.181Z,17.88
2023-05-22T01:05:11.313Z,19.27
2023-05-22T01:07:58.925Z,19.23
2023-05-22T01:10:54.167Z,20.63
2023-05-22T01:13:54.953Z,22.42
2023-05-22T01:16:54.848Z,23.13
2023-05-22T01:20:10.704Z,23.75
2023-05-22T01:23:54.072Z,24.30
2023-05-22T01:30:05.252Z,24.63
2023-05-22T01:32:59.400Z,21.58
2023-05-22T01:35:53.991Z,19.95
2023-05-22T01:38:43.789Z,18.80
2023-05-22T01:41:32.499Z,17.52
2023-05-22T01:44:22.143Z,16.17
2023-05-22T01:47:11.051Z,15.02
2023-05-22T01:50:00.436Z,14.43
2023-05-22T01:53:13.325Z,14.43
2023-05-22T01:56:08.535Z,14.23
2023-05-22T01:59:05.592Z,13.40
2023-05-22T02:01:56.394Z,12.43
2023-05-22T02:04:50.359Z,12.27
2023-05-22T02:07:43.258Z,11.75
2023-05-22T02:10:32.996Z,13.85
2023-05-22T02:13:23.827Z,11.88
2023-05-22T02:16:12.998Z,12.10
2023-05-22T02:19:06.617Z,12.77
2023-05-22T02:21:57.294Z,12.45
2023-05-22T02:24:51.775Z,13.30
2023-05-22T02:27:42.667Z,12.95
2023-05-22T02:30:35.019Z,12.90
2023-05-22T02:33:24.866Z,12.73
2023-05-22T02:36:14.647Z,11.98
2023-05-22T02:39:02.475Z,12.15
2023-05-22T02:41:51.656Z,11.60
2023-05-22T02:44:39.677Z,12.75
2023-05-22T02:47:27.861Z,12.13
2023-05-22T02:50:16.009Z,10.98
2023-05-22T02:53:03.818Z,11.38
2023-05-22T02:55:53.967Z,11.32
2023-05-22T02:58:43.376Z,10.57
2023-05-22T03:01:31.467Z,11.25
2023-05-22T03:04:19.149Z,10.73
2023-05-22T03:07:08.210Z,13.52
2023-05-22T03:09:56.516Z,12.82
2023-05-22T03:12:44.803Z,10.73
2023-05-22T03:15:33.866Z,11.68
2023-05-22T03:18:21.984Z,11.02
2023-05-22T03:21:10.520Z,11.98
2023-05-22T03:23:58.422Z,11.95
2023-05-22T03:26:49.286Z,13.10
2023-05-22T03:29:39.402Z,12.98
2023-05-22T03:32:30.550Z,11.95
2023-05-22T03:35:19.972Z,11.80
2023-05-22T03:38:07.956Z,11.95
2023-05-22T03:40:55.846Z,12.45
2023-05-22T03:43:45.033Z,11.45
2023-05-22T03:46:33.062Z,11.60
2023-05-22T03:49:28.993Z,11.30
2023-05-22T03:52:16.935Z,11.00
2023-05-22T03:55:04.989Z,10.95
2023-05-22T03:57:52.299Z,11.85
2023-05-22T04:00:40.472Z,11.82
2023-05-22T04:03:28.465Z,12.18
2023-05-22T04:06:22.038Z,10.73
2023-05-22T04:09:12.683Z,10.82
2023-05-22T04:12:01.817Z,11.55
2023-05-22T04:14:49.912Z,11.48
2023-05-22T04:17:42.175Z,10.75
2023-05-22T04:20:30.141Z,11.07
2023-05-22T04:23:19.186Z,10.68
2023-05-22T04:26:08.719Z,11.43
2023-05-22T04:28:56.440Z,13.70
2023-05-22T04:31:44.733Z,10.93
2023-05-22T04:34:33.744Z,11.23
2023-05-22T04:37:21.989Z,12.02
2023-05-22T04:40:15.123Z,10.20
2023-05-22T04:43:03.658Z,10.02
2023-05-22T04:45:51.699Z,11.80
2023-05-22T04:48:40.237Z,10.40
2023-05-22T04:51:28.094Z,10.80
2023-05-22T04:54:15.892Z,9.65
2023-05-22T04:57:05.875Z,14.77
2023-05-22T04:59:54.373Z,12.20
2023-05-22T05:02:44.050Z,11.88
2023-05-22T05:05:31.979Z,14.48
2023-05-22T05:08:20.489Z,10.73
2023-05-22T05:11:08.432Z,11.77
2023-05-22T05:13:57.692Z,11.98
2023-05-22T05:16:46.933Z,10.40
2023-05-22T05:19:36.843Z,11.63
2023-05-22T05:22:25.240Z,12.43
2023-05-22T05:25:13.976Z,11.75
2023-05-22T05:28:01.654Z,13.20
2023-05-22T05:30:50.866Z,14.13
2023-05-22T05:33:38.296Z,13.20
2023-05-22T05:36:27.407Z,12.93
2023-05-22T05:39:15.309Z,15.05
2023-05-22T05:42:02.760Z,14.98
2023-05-22T05:44:50.395Z,13.25
2023-05-22T05:47:39.379Z,13.82
2023-05-22T05:50:27.345Z,17.35
2023-05-22T05:53:17.346Z,14.45
2023-05-22T05:56:06.823Z,13.25
2023-05-22T05:58:54.661Z,13.23
2023-05-22T06:01:48.226Z,14.40
2023-05-22T06:04:38.792Z,13.75
2023-05-22T06:07:30.145Z,13.40
2023-05-22T06:10:18.917Z,16.15
2023-05-22T06:13:09.706Z,13.73
2023-05-22T06:16:01.320Z,13.00
2023-05-22T06:18:52.509Z,13.23
2023-05-22T06:21:42.347Z,12.85
2023-05-22T06:24:32.070Z,13.88
2023-05-22T06:27:20.326Z,13.20
2023-05-22T06:30:10.053Z,12.32
2023-05-22T06:32:58.584Z,13.90
2023-05-22T06:35:46.604Z,14.25
2023-05-22T06:38:38.060Z,12.07
2023-05-22T06:41:26.187Z,12.20
2023-05-22T06:44:13.995Z,13.07
2023-05-22T06:47:02.048Z,13.35
2023-05-22T06:49:49.810Z,15.07
2023-05-22T06:52:38.926Z,17.92
2023-05-22T06:55:28.412Z,11.63
2023-05-22T06:58:16.094Z,14.52
2023-05-22T07:01:04.101Z,12.00
2023-05-22T07:03:51.852Z,13.18
2023-05-22T07:06:41.544Z,11.48
2023-05-22T07:09:29.458Z,11.73
2023-05-22T07:12:20.452Z,12.60
2023-05-22T07:15:12.225Z,15.00
2023-05-22T07:18:00.425Z,12.93
2023-05-22T07:20:48.449Z,11.60
2023-05-22T07:23:36.059Z,11.35
2023-05-22T07:26:23.695Z,12.80
2023-05-22T07:29:17.819Z,10.43
2023-05-22T07:32:06.161Z,11.25
2023-05-22T07:34:53.978Z,16.17
2023-05-22T07:37:41.830Z,10.55
2023-05-22T07:40:29.941Z,12.60
2023-05-22T07:43:17.787Z,15.43
2023-05-22T07:46:07.220Z,12.68
2023-05-22T07:48:55.057Z,15.00
2023-05-22T07:51:43.254Z,15.60
2023-05-22T07:54:30.909Z,15.20
2023-05-22T07:57:18.776Z,19.73
2023-05-22T08:00:13.913Z,17.35
2023-05-22T08:03:03.824Z,12.30
2023-05-22T08:05:51.863Z,13.55
2023-05-22T08:08:39.343Z,12.45
2023-05-22T08:11:27.613Z,10.02
2023-05-22T08:14:16.043Z,9.20
2023-05-22T08:17:04.354Z,10.25
2023-05-22T08:19:53.459Z,10.50
2023-05-22T08:22:41.872Z,12.48
2023-05-22T08:25:29.752Z,11.13
2023-05-22T08:28:17.708Z,10.48
2023-05-22T08:31:05.270Z,12.15
2023-05-22T08:33:52.707Z,11.05
2023-05-22T08:36:41.671Z,9.27
2023-05-22T08:39:30.771Z,10.10
2023-05-22T08:42:18.529Z,9.90
2023-05-22T08:45:08.149Z,14.43
2023-05-22T08:47:59.759Z,17.40
2023-05-22T08:50:57.120Z,16.45
2023-05-22T08:53:52.820Z,10.68
2023-05-22T08:56:52.883Z,11.20
2023-05-22T08:59:45.834Z,11.38
2023-05-22T09:02:34.374Z,11.60
2023-05-22T09:05:26.560Z,12.27
2023-05-22T09:08:20.459Z,12.07
2023-05-22T09:11:10.957Z,13.18
2023-05-22T09:14:09.379Z,28.60
2023-05-22T09:16:56.969Z,17.17
2023-05-22T09:19:46.674Z,14.30
2023-05-22T09:22:39.232Z,28.67
2023-05-22T09:25:27.514Z,13.90
2023-05-22T09:28:16.308Z,10.10
2023-05-22T09:31:06.340Z,8.65
2023-05-22T09:33:55.942Z,8.60
2023-05-22T09:36:43.813Z,12.13
2023-05-22T09:39:41.867Z,10.85
2023-05-22T09:42:30.130Z,8.85
2023-05-22T09:45:24.083Z,9.18
2023-05-22T09:48:12.648Z,8.77
2023-05-22T09:51:02.409Z,9.70
2023-05-22T09:53:53.054Z,9.23
2023-05-22T09:56:51.825Z,8.57
2023-05-22T09:59:41.726Z,11.73
2023-05-22T10:02:34.614Z,17.85
2023-05-22T10:05:28.796Z,10.27
2023-05-22T10:08:24.491Z,12.23
2023-05-22T10:11:13.705Z,10.15
2023-05-22T10:14:05.261Z,10.88
2023-05-22T10:16:54.658Z,9.70
2023-05-22T10:19:48.186Z,10.18
2023-05-22T10:22:38.555Z,10.60
2023-05-22T10:25:27.207Z,9.75
2023-05-22T10:28:27.561Z,10.40
2023-05-22T10:31:28.475Z,9.18
2023-05-22T10:34:29.567Z,8.82
2023-05-22T10:37:41.531Z,7.88
2023-05-22T10:40:33.635Z,7.78
2023-05-22T10:43:23.676Z,7.82
2023-05-22T10:46:14.469Z,7.53
2023-05-22T10:49:03.922Z,8.47
2023-05-22T10:51:59.869Z,8.43
2023-05-22T10:54:53.564Z,11.05
2023-05-22T10:57:43.632Z,8.25
2023-05-22T11:00:33.036Z,8.95
2023-05-22T11:03:22.844Z,8.68
2023-05-22T11:06:35.242Z,8.25
2023-05-22T11:09:30.885Z,8.60
2023-05-22T11:12:31.122Z,8.50
2023-05-22T11:15:19.091Z,8.75
2023-05-22T11:18:07.924Z,8.02
2023-05-22T11:20:56.139Z,8.00
2023-05-22T11:23:44.089Z,10.10
2023-05-22T11:26:33.210Z,8.40
2023-05-22T11:29:25.063Z,9.82
2023-05-22T11:32:15.715Z,6.75
2023-05-22T11:35:05.352Z,6.60
2023-05-22T11:37:55.222Z,6.90
2023-05-22T11:40:43.830Z,9.93
2023-05-22T11:43:34.373Z,8.05
2023-05-22T11:46:23.567Z,7.03
2023-05-22T11:49:13.217Z,9.77
2023-05-22T11:52:01.182Z,12.00
2023-05-22T11:54:50.149Z,8.15
2023-05-22T11:57:39.383Z,7.50
2023-05-22T12:00:29.366Z,7.07
2023-05-22T12:03:18.878Z,6.53
2023-05-22T12:06:08.541Z,7.50
2023-05-22T12:08:56.243Z,8.70
2023-05-22T12:11:49.414Z,7.80
2023-05-22T12:14:37.056Z,8.45
2023-05-22T12:17:27.259Z,7.63
2023-05-22T12:20:16.348Z,7.65
2023-05-22T12:23:03.880Z,9.27
2023-05-22T12:26:02.289Z,8.57
2023-05-22T12:28:54.679Z,8.50
2023-05-22T12:31:44.365Z,8.02
2023-05-22T12:34:35.567Z,7.78
2023-05-22T12:37:26.789Z,9.18
2023-05-22T12:40:14.408Z,11.50
2023-05-22T12:43:02.374Z,11.48
2023-05-22T12:45:49.826Z,11.50
2023-05-22T12:48:39.270Z,12.10
2023-05-22T12:51:29.782Z,12.00
2023-05-22T12:54:20.735Z,9.37
2023-05-22T12:57:08.780Z,9.88
2023-05-22T12:59:58.549Z,11.88
2023-05-22T13:02:49.692Z,12.52
2023-05-22T13:08:26.324Z,11.60
2023-05-22T13:11:15.342Z,12.77
2023-05-22T13:14:03.377Z,10.48
2023-05-22T13:16:51.409Z,9.57
2023-05-22T13:19:39.550Z,10.00
2023-05-22T13:22:27.441Z,12.90
2023-05-22T13:25:15.140Z,12.57
2023-05-22T13:28:04.435Z,11.73
2023-05-22T13:30:52.231Z,9.45
2023-05-22T13:33:40.092Z,8.43
2023-05-22T13:36:27.880Z,9.00
2023-05-22T13:39:18.224Z,9.52
2023-05-22T13:42:07.169Z,9.70
2023-05-22T13:44:56.504Z,7.35
2023-05-22T13:47:44.201Z,8.75
2023-05-22T13:50:32.110Z,7.63
2023-05-22T13:53:20.322Z,9.00
2023-05-22T13:56:08.251Z,8.38
2023-05-22T13:58:56.108Z,7.90
2023-05-22T14:01:45.060Z,7.40
2023-05-22T14:04:33.328Z,7.88
2023-05-22T14:07:20.969Z,7.55
2023-05-22T14:10:10.329Z,8.48
2023-05-22T14:12:57.896Z,9.30
2023-05-22T14:15:48.143Z,7.72
2023-05-22T14:18:37.572Z,7.53
2023-05-22T14:21:25.361Z,7.60
2023-05-22T14:24:13.477Z,8.30
2023-05-22T14:27:01.515Z,8.80
2023-05-22T14:29:49.179Z,7.93
2023-05-22T14:32:36.805Z,8.50
2023-05-22T14:35:25.932Z,9.43
2023-05-22T14:38:13.790Z,14.15
2023-05-22T14:41:01.342Z,10.73
2023-05-22T14:43:49.042Z,14.35
2023-05-22T14:46:36.935Z,13.18
2023-05-22T14:49:24.780Z,13.77
2023-05-22T14:52:13.678Z,17.10
2023-05-22T14:55:01.604Z,10.73
2023-05-22T14:57:49.249Z,15.38
2023-05-22T15:00:36.856Z,15.13
2023-05-22T15:03:24.363Z,14.27
2023-05-22T15:06:12.116Z,13.52
2023-05-22T15:09:01.972Z,16.13
2023-05-22T15:11:51.093Z,10.18
2023-05-22T15:14:39.311Z,14.45
2023-05-22T15:17:30.069Z,13.52
2023-05-22T15:20:18.332Z,13.10
2023-05-22T15:23:06.910Z,9.77
2023-05-22T15:25:56.612Z,10.23
2023-05-22T15:28:46.578Z,8.25
2023-05-22T15:31:34.301Z,7.03
2023-05-22T15:34:22.045Z,9.18
2023-05-22T15:37:09.625Z,8.90
2023-05-22T15:39:57.231Z,7.70
2023-05-22T15:42:46.247Z,8.02
2023-05-22T15:45:34.106Z,7.88
2023-05-22T15:48:21.896Z,8.02
2023-05-22T15:51:09.950Z,7.70
2023-05-22T15:53:58.674Z,8.32
2023-05-22T15:56:46.565Z,8.40
2023-05-22T15:59:35.518Z,8.15
2023-05-22T16:02:23.773Z,6.80
2023-05-22T16:05:11.902Z,7.63
2023-05-22T16:07:59.566Z,7.47
2023-05-22T16:10:47.347Z,7.25
2023-05-22T16:13:35.437Z,7.72
2023-05-22T16:16:24.471Z,7.30
2023-05-22T16:19:12.488Z,6.70
2023-05-22T16:22:00.152Z,6.78
2023-05-22T16:24:47.781Z,7.82
2023-05-22T16:27:35.439Z,6.05
2023-05-22T16:30:23.685Z,6.70
2023-05-22T16:33:13.237Z,6.22
2023-05-22T16:36:01.091Z,5.38
2023-05-22T16:38:48.717Z,6.20
2023-05-22T16:41:37.711Z,7.10
2023-05-22T16:44:25.598Z,8.50
2023-05-22T16:47:13.497Z,7.38
2023-05-22T16:50:02.796Z,8.25
2023-05-22T16:52:50.378Z,9.00
2023-05-22T16:55:38.710Z,7.72
2023-05-22T16:58:26.577Z,9.32
2023-05-22T17:01:14.902Z,8.52
2023-05-22T17:04:02.586Z,9.20
2023-05-22T17:06:53.737Z,8.48
2023-05-22T17:09:41.198Z,9.38
2023-05-22T17:12:28.814Z,9.65
2023-05-22T17:15:16.510Z,9.45
2023-05-22T17:18:04.078Z,10.18
2023-05-22T17:20:54.014Z,10.20
2023-05-22T17:23:43.627Z,10.30
2023-05-22T17:26:33.211Z,8.40
2023-05-22T17:29:20.884Z,9.32
2023-05-22T17:32:08.828Z,10.20
2023-05-22T17:34:56.295Z,9.15
2023-05-22T17:37:44.011Z,10.60
2023-05-22T17:40:44.660Z,10.02
2023-05-22T17:43:36.784Z,11.52
2023-05-22T17:46:26.584Z,15.52
2023-05-22T17:49:14.390Z,20.65
2023-05-22T17:52:02.457Z,22.42
2023-05-22T17:54:50.320Z,15.50
2023-05-22T17:57:39.398Z,16.50
2023-05-22T18:00:27.168Z,18.02
2023-05-22T18:03:15.002Z,16.95
2023-05-22T18:06:02.884Z,14.63
2023-05-22T18:08:50.731Z,16.23
2023-05-22T18:11:38.585Z,14.23
2023-05-22T18:14:27.929Z,14.45
2023-05-22T18:17:15.622Z,13.60
2023-05-22T18:20:04.270Z,16.95
2023-05-22T18:22:52.100Z,20.20
2023-05-22T18:25:40.184Z,25.55
2023-05-22T18:28:28.510Z,32.85
2023-05-22T18:31:18.145Z,29.77
2023-05-22T18:34:06.378Z,25.98
2023-05-22T18:36:55.794Z,24.55
2023-05-22T18:39:45.854Z,25.35
2023-05-22T18:42:36.358Z,19.85
2023-05-22T18:45:24.910Z,17.92
2023-05-22T18:48:14.470Z,17.85
2023-05-22T18:51:02.528Z,22.92
2023-05-22T18:53:52.209Z,25.38
2023-05-22T18:56:41.142Z,29.50
2023-05-22T18:59:30.953Z,25.52
2023-05-22T19:02:21.430Z,23.40
2023-05-22T19:05:11.993Z,19.90
2023-05-22T19:07:59.890Z,16.10
2023-05-22T19:10:47.653Z,10.05
2023-05-22T19:13:35.353Z,8.48
2023-05-22T19:16:22.966Z,10.13
2023-05-22T19:19:11.605Z,9.65
2023-05-22T19:22:01.097Z,10.43
2023-05-22T19:24:48.954Z,11.68
2023-05-22T19:27:38.987Z,11.40
2023-05-22T19:30:27.187Z,13.50
2023-05-22T19:33:16.946Z,12.15
2023-05-22T19:36:06.598Z,12.23
2023-05-22T19:38:55.924Z,11.82
2023-05-22T19:41:43.846Z,12.98
2023-05-22T19:44:31.482Z,13.93
2023-05-22T19:47:19.524Z,19.15
2023-05-22T19:50:09.328Z,17.75
2023-05-22T19:52:57.457Z,13.68
2023-05-22T19:55:47.750Z,12.45
2023-05-22T19:58:36.034Z,14.60
2023-05-22T20:01:24.630Z,15.02
2023-05-22T20:04:12.602Z,10.93
2023-05-22T20:07:02.308Z,12.23
2023-05-22T20:09:50.477Z,11.98
2023-05-22T20:12:39.936Z,12.95
2023-05-22T20:15:27.383Z,13.65
2023-05-22T20:18:15.416Z,14.38
2023-05-22T20:21:06.325Z,13.18
2023-05-22T20:23:55.526Z,13.60
2023-05-22T20:26:43.569Z,10.82
2023-05-22T20:29:32.749Z,13.65
2023-05-22T20:32:20.604Z,11.48
2023-05-22T20:35:10.932Z,10.68
2023-05-22T20:38:02.989Z,11.85
2023-05-22T20:43:44.212Z,11.57
2023-05-22T20:46:33.835Z,16.40
2023-05-22T20:49:21.836Z,11.48
2023-05-22T20:52:10.067Z,12.82
2023-05-22T20:54:57.949Z,14.02
2023-05-22T20:57:45.556Z,13.02
2023-05-22T21:00:34.915Z,14.50
2023-05-22T21:03:25.811Z,17.08
2023-05-22T21:06:13.806Z,19.05
2023-05-22T21:09:01.743Z,19.98
2023-05-22T21:11:49.722Z,20.35
2023-05-22T21:14:37.321Z,20.17
2023-05-22T21:17:27.794Z,17.65
2023-05-22T21:20:17.493Z,15.30
2023-05-22T21:23:05.246Z,12.75
2023-05-22T21:25:52.944Z,11.15
2023-05-22T21:28:43.142Z,12.82
2023-05-22T21:31:31.845Z,13.02
2023-05-22T21:34:20.892Z,14.25
2023-05-22T21:37:10.157Z,13.32
2023-05-22T21:39:58.104Z,13.13
2023-05-22T21:42:47.327Z,12.10
2023-05-22T21:45:36.880Z,13.82
2023-05-22T21:48:24.656Z,11.15
2023-05-22T21:51:12.170Z,11.70
2023-05-22T21:54:01.459Z,11.30
2023-05-22T21:56:49.356Z,12.30
2023-05-22T21:59:37.112Z,11.43
2023-05-22T22:02:25.100Z,10.90
2023-05-22T22:05:13.047Z,11.13
2023-05-22T22:08:00.648Z,11.65
2023-05-22T22:10:49.606Z,12.02
2023-05-22T22:13:37.408Z,12.38
2023-05-22T22:16:26.152Z,12.90
2023-05-22T22:19:15.664Z,13.55
2023-05-22T22:22:03.932Z,12.45
2023-05-22T22:24:51.373Z,12.68
2023-05-22T22:27:40.206Z,12.48
2023-05-22T22:30:28.225Z,11.60
2023-05-22T22:33:16.473Z,12.73
2023-05-22T22:36:04.232Z,12.52
2023-05-22T22:38:51.705Z,12.85
2023-05-22T22:41:39.401Z,11.52
2023-05-22T22:44:28.413Z,11.27
2023-05-22T22:47:16.138Z,12.02
2023-05-22T22:50:04.026Z,11.48
2023-05-22T22:52:52.129Z,12.07
2023-05-22T22:55:40.192Z,12.60
2023-05-22T22:58:27.999Z,10.70
2023-05-22T23:01:16.959Z,11.20
2023-05-22T23:04:04.775Z,11.48
2023-05-22T23:06:52.685Z,12.00
2023-05-22T23:09:40.585Z,12.45
2023-05-22T23:12:28.554Z,11.88
2023-05-22T23:15:24.282Z,11.48
2023-05-22T23:18:13.974Z,11.30
2023-05-22T23:21:01.643Z,11.10
2023-05-22T23:23:49.136Z,12.20
2023-05-22T23:26:37.029Z,10.90
2023-05-22T23:29:24.810Z,11.52
2023-05-22T23:32:14.597Z,11.60
2023-05-22T23:35:05.775Z,12.80
2023-05-22T23:37:56.366Z,11.52
2023-05-22T23:40:43.858Z,12.55
2023-05-22T23:43:31.621Z,11.00
2023-05-22T23:46:21.219Z,12.90
2023-05-22T23:49:09.203Z,11.65
2023-05-22T23:51:58.227Z,12.15
2023-05-22T23:54:46.245Z,13.48
2023-05-22T23:57:36.945Z,14.63
